Kirkville, IA

7:26 AM CDT on March 29, 2015 (GMT -0500)
Ottumwa Industrial | Change Station
CLOSE
Current Station
Airport
Location: Ottumwa,
Elevation: 843 ft
Nearby Weather Stations

Elev 843 ft 41.11 °N, 92.45 °W | Updated 33 minutes ago

Rain
Rain
35 °F
Feels Like 24 °F
N
22
Wind Variable Wind from SSE
Gusts 28 mph

Today
High -- | Low -- °F
--% Chance of Precip.
Yesterday
High -- | Low -- °F
Precip. -- in
6:58 AM 7:31 PM
Waxing Gibbous, 71% visible
Pressure 29.93 in
Visibility 9.0 miles
Clouds Few 7000 ft
Overcast 9000 ft
Windchill 24 °F
Dew Point 30 °F
Humidity 82%
Rainfall 0.01 in
Snow Depth Not available.
UV 0 out of 12
Pollen 8.50 out of 12
Air Quality Not available.
Flu Activity Regional
METAR KOTM 291153Z AUTO 16019G24KT 9SM -RA FEW070 OVC090 02/M01 A2991 RMK AO2 RAB00UPB46E49 PRESFR SLP134 P0001 60001 70001 T00171011 10017 20006 58028

More Conditions Fewer Conditions

Pressure 29.93 in
Visibility 9.0 miles
Clouds Few 7000 ft
Overcast 9000 ft
Windchill 24 °F
Dew Point 30 °F
Humidity 82%
Rainfall 0.01 in
Snow Depth Not available.
UV 0 out of 12
Pollen 8.50 out of 12
Air Quality Not available.
Flu Activity Regional
METAR KOTM 291153Z AUTO 16019G24KT 9SM -RA FEW070 OVC090 02/M01 A2991 RMK AO2 RAB00UPB46E49 PRESFR SLP134 P0001 60001 70001 T00171011 10017 20006 58028

More Conditions Fewer Conditions

10-Day Weather Forecast

Almanac

Astronomy

Mar. 29, 2015 Rise Set
Actual Time 6:58 AM CDT 7:31 PM CDT
Civil Twilight 6:30 AM CDT 7:59 PM CDT
Nautical Twilight 5:58 AM CDT 8:31 PM CDT
Astronomical Twilight 5:24 AM CDT 9:05 PM CDT
Moon 2:24 PM CDT 3:47 AM CDT
Length of Visible Light 13h 28m
Length of Day
12h 32m
Tomorrow will be 2m 44s longer.
Waxing Gibbous, 71% of the Moon is Illuminated
Today
Waxing Gibbous
Apr 4
Full
Apr 11
Last Quarter
Apr 18
New
Apr 25
First Quarter

Today's Extremes

State Highs State Lows

Community

WunderPhotos

Upload Photos

1,809,229 photos uploaded!

WunderBlogs® & News

Nearby

Snow Depth

Station Depth Elevation
No new snow has been reported.

Earthquake Activity

City Distance Mag. Time & Date
No recent earthquake activity has been reported nearby.
Minimum magnitude displayed is 2.5.

Coastal Water Temperatures

Place Temperature
No Stations Reporting

Nearby Weather Stations